Mar'Ina Gorka, Belarus

1:08 PM FET on October 22, 2014 (GMT +0300)
Minsk-2 | Change Station
CLOSE
Current Station
Airport
Location: Minsk In-Min,
Elevation: 669 ft
Nearby Weather Stations

Elev 669 ft 53.88 °N, 28.03 °E | Updated 8 minutes ago

Light Snow Showers
Light Showers Snow
32 °F
Feels Like 24 °F
N
9
Wind Variable Wind from East

Today
High -- | Low -- °F
--% Chance of Precip.
Yesterday
High -- | Low -- °F
Precip. -- in
7:46 AM 5:56 PM
Waning Crescent, 2% visible
Pressure 29.92 in
Visibility 1.5 miles
Clouds Overcast 1800 ft
Windchill 24 °F
Dew Point 30 °F
Humidity 93%
Rainfall 0.00 in
Snow Depth Not available.
UV 1 out of 12
Pollen Not available.
Air Quality Not available.
Flu Activity Not available.
METAR UMMS 221000Z 09004MPS 2400 -SHSN OVC018CB M00/M01 Q1013 R13/290060 NOSIG

More Conditions Fewer Conditions

Pressure 29.92 in
Visibility 1.5 miles
Clouds Overcast 1800 ft
Windchill 24 °F
Dew Point 30 °F
Humidity 93%
Rainfall 0.00 in
Snow Depth Not available.
UV 1 out of 12
Pollen Not available.
Air Quality Not available.
Flu Activity Not available.
METAR UMMS 221000Z 09004MPS 2400 -SHSN OVC018CB M00/M01 Q1013 R13/290060 NOSIG

More Conditions Fewer Conditions

10-Day Weather Forecast

Almanac

Astronomy

Oct. 22, 2014 Rise Set
Actual Time 7:46 AM FET 5:56 PM FET
Civil Twilight 7:11 AM FET 6:31 PM FET
Nautical Twilight 6:30 AM FET 7:12 PM FET
Astronomical Twilight 5:50 AM FET 7:52 PM FET
Moon 5:56 AM FET 5:21 PM FET
Length of Visible Light 11h 20m
Length of Day
10h 09m
Tomorrow will be 4m 3s shorter.
Waning Crescent, 2% of the Moon is Illuminated
Today
Waning Crescent
Oct 23
New
Oct 30
First Quarter
Nov 6
Full
Nov 14
Last Quarter

Yesterday's Extremes

Country Highs Country Lows

Community

WunderPhotos

Upload Photos

1,763,901 photos uploaded!

Nearby

Snow Depth

Not available.

Earthquake Activity

City Distance Mag. Time & Date
No recent earthquake activity has been reported nearby.
Minimum magnitude displayed is 2.5.

Coastal Water Temperatures

Place Temperature
No Stations Reporting

Nearby Weather Stations